createdAt,value
2019-01-13T00:00:42.153Z,3.90
2019-01-13T00:03:10.287Z,4.00
2019-01-13T00:05:37.205Z,4.00
2019-01-13T00:08:04.148Z,4.00
2019-01-13T00:10:31.091Z,4.00
2019-01-13T00:12:58.021Z,4.10
2019-01-13T00:15:24.952Z,4.10
2019-01-13T00:17:51.896Z,4.20
2019-01-13T00:20:18.821Z,4.00
2019-01-13T00:22:45.750Z,4.10
2019-01-13T00:25:12.707Z,4.20
2019-01-13T00:27:39.648Z,4.20
2019-01-13T00:30:10.440Z,4.20
2019-01-13T00:32:37.385Z,4.20
2019-01-13T00:35:04.336Z,4.20
2019-01-13T00:37:31.278Z,4.30
2019-01-13T00:39:58.216Z,4.30
2019-01-13T00:42:25.155Z,4.20
2019-01-13T00:44:52.084Z,4.30
2019-01-13T00:47:19.035Z,4.30
2019-01-13T00:49:45.960Z,4.30
2019-01-13T00:52:12.899Z,4.50
2019-01-13T00:54:39.859Z,4.30
2019-01-13T00:57:06.768Z,4.40
2019-01-13T00:59:33.709Z,4.40
2019-01-13T01:02:00.676Z,4.40
2019-01-13T01:04:28.379Z,4.40
2019-01-13T01:06:55.300Z,4.40
2019-01-13T01:09:22.249Z,4.40
2019-01-13T01:11:49.203Z,4.60
2019-01-13T01:14:16.132Z,4.50
2019-01-13T01:16:43.097Z,4.50
2019-01-13T01:19:10.032Z,4.50
2019-01-13T01:21:36.971Z,4.50
2019-01-13T01:24:03.951Z,4.60
2019-01-13T01:26:30.892Z,4.50
2019-01-13T01:28:57.823Z,4.50
2019-01-13T01:31:24.762Z,4.60
2019-01-13T01:33:51.687Z,4.60
2019-01-13T01:36:18.633Z,4.50
2019-01-13T01:38:45.589Z,4.60
2019-01-13T01:41:12.515Z,4.60
2019-01-13T01:43:39.455Z,4.60
2019-01-13T01:46:06.427Z,4.60
2019-01-13T01:48:33.415Z,4.60
2019-01-13T01:51:00.331Z,4.60
2019-01-13T01:53:27.291Z,4.70
2019-01-13T01:55:54.226Z,4.70
2019-01-13T01:58:21.159Z,4.70
2019-01-13T02:00:48.099Z,4.70
2019-01-13T02:03:15.024Z,4.70
2019-01-13T02:05:42.591Z,4.70
2019-01-13T02:08:09.512Z,4.70
2019-01-13T02:10:36.448Z,4.70
2019-01-13T02:13:03.394Z,4.70
2019-01-13T02:15:30.342Z,4.70
2019-01-13T02:17:57.288Z,4.70
2019-01-13T02:20:24.210Z,4.80
2019-01-13T02:22:51.176Z,4.80
2019-01-13T02:25:20.621Z,5.00
2019-01-13T02:27:47.536Z,4.90
2019-01-13T02:30:16.693Z,4.90
2019-01-13T02:32:43.628Z,4.90
2019-01-13T02:35:10.545Z,5.00
2019-01-13T02:37:37.488Z,4.90
2019-01-13T02:40:05.010Z,5.00
2019-01-13T02:42:31.952Z,5.00
2019-01-13T02:44:58.888Z,5.00
2019-01-13T02:47:25.820Z,5.00
2019-01-13T02:49:52.756Z,5.00
2019-01-13T02:52:19.689Z,5.10
2019-01-13T02:54:46.617Z,5.00
2019-01-13T02:57:13.553Z,5.10
2019-01-13T02:59:40.508Z,5.00
2019-01-13T03:02:07.437Z,5.00
2019-01-13T03:04:34.376Z,5.40
2019-01-13T03:07:01.676Z,5.10
2019-01-13T03:09:28.610Z,5.10
2019-01-13T03:11:55.607Z,5.20
2019-01-13T03:14:22.913Z,5.30
2019-01-13T03:16:49.832Z,5.40
2019-01-13T03:19:16.765Z,5.30
2019-01-13T03:21:43.737Z,5.40
2019-01-13T03:24:10.661Z,5.30
2019-01-13T03:26:37.583Z,5.20
2019-01-13T03:29:04.523Z,5.50
2019-01-13T03:31:31.444Z,5.30
2019-01-13T03:33:58.380Z,5.30
2019-01-13T03:36:25.329Z,5.30
2019-01-13T03:38:52.257Z,5.40
2019-01-13T03:41:19.203Z,5.40
2019-01-13T03:43:46.161Z,5.40
2019-01-13T03:46:13.087Z,5.40
2019-01-13T03:48:40.047Z,5.50
2019-01-13T03:51:07.015Z,5.30
2019-01-13T03:53:33.990Z,5.40
2019-01-13T03:56:00.927Z,5.40
2019-01-13T03:58:27.875Z,5.50
2019-01-13T04:00:54.808Z,5.50
2019-01-13T04:03:21.768Z,5.50
2019-01-13T04:05:48.708Z,5.60
2019-01-13T04:08:17.104Z,5.60
2019-01-13T04:10:44.035Z,5.60
2019-01-13T04:13:10.972Z,5.60
2019-01-13T04:15:41.130Z,5.60
2019-01-13T04:18:08.058Z,5.60
2019-01-13T04:20:34.996Z,5.60
2019-01-13T04:23:01.924Z,5.60
2019-01-13T04:25:28.856Z,5.60
2019-01-13T04:27:55.801Z,5.70
2019-01-13T04:30:23.092Z,5.70
2019-01-13T04:32:50.040Z,5.70
2019-01-13T04:35:16.992Z,5.70
2019-01-13T04:37:43.928Z,5.70
2019-01-13T04:40:10.852Z,5.50
2019-01-13T04:42:37.809Z,5.80
2019-01-13T04:45:04.777Z,5.70
2019-01-13T04:47:31.736Z,5.70
2019-01-13T04:49:58.688Z,5.70
2019-01-13T04:52:25.625Z,5.70
2019-01-13T04:54:52.568Z,5.60
2019-01-13T04:57:19.517Z,5.80
2019-01-13T04:59:46.466Z,5.70
2019-01-13T05:02:13.407Z,5.80
2019-01-13T05:04:40.367Z,5.70
2019-01-13T05:07:07.297Z,5.70
2019-01-13T05:09:35.693Z,5.70
2019-01-13T05:12:02.661Z,5.80
2019-01-13T05:14:29.601Z,5.70
2019-01-13T05:16:56.544Z,5.70
2019-01-13T05:19:23.504Z,5.80
2019-01-13T05:21:50.445Z,5.80
2019-01-13T05:24:17.371Z,5.80
2019-01-13T05:26:44.316Z,5.80
2019-01-13T05:29:11.248Z,5.80
2019-01-13T05:31:42.117Z,5.80
2019-01-13T05:34:05.143Z,5.80
2019-01-13T05:36:32.087Z,6.00
2019-01-13T05:38:59.024Z,5.90
2019-01-13T05:41:25.973Z,5.90
2019-01-13T05:43:52.909Z,5.90
2019-01-13T05:46:19.832Z,5.90
2019-01-13T05:48:46.771Z,5.90
2019-01-13T05:51:13.700Z,6.00
2019-01-13T05:53:40.623Z,6.00
2019-01-13T05:56:07.567Z,6.00
2019-01-13T05:58:34.497Z,6.00
2019-01-13T06:01:01.425Z,6.00
2019-01-13T06:03:28.369Z,6.00
2019-01-13T06:05:55.297Z,6.10
2019-01-13T06:08:22.227Z,7.10
2019-01-13T06:10:49.594Z,6.00
2019-01-13T06:13:16.522Z,6.00
2019-01-13T06:15:43.456Z,6.00
2019-01-13T06:18:10.408Z,5.90
2019-01-13T06:20:37.353Z,5.80
2019-01-13T06:23:04.301Z,5.90
2019-01-13T06:25:31.249Z,5.90
2019-01-13T06:27:58.172Z,5.80
2019-01-13T06:30:25.104Z,6.00
2019-01-13T06:32:52.103Z,5.90
2019-01-13T06:35:19.500Z,5.80
2019-01-13T06:37:46.464Z,5.80
2019-01-13T06:40:15.569Z,5.80
2019-01-13T06:42:42.483Z,5.80
2019-01-13T06:45:11.993Z,5.90
2019-01-13T06:47:38.953Z,5.90
2019-01-13T06:50:07.010Z,5.80
2019-01-13T06:52:33.939Z,5.80
2019-01-13T06:55:00.888Z,5.90
2019-01-13T06:57:27.851Z,6.00
2019-01-13T06:59:54.783Z,5.90
2019-01-13T07:02:21.743Z,5.90
2019-01-13T07:04:48.672Z,6.00
2019-01-13T07:07:15.594Z,6.00
2019-01-13T07:09:42.556Z,6.00
2019-01-13T07:12:09.756Z,5.90
2019-01-13T07:14:36.676Z,6.00
2019-01-13T07:17:03.628Z,5.90
2019-01-13T07:19:30.548Z,5.90
2019-01-13T07:21:57.488Z,5.90
2019-01-13T07:24:24.445Z,6.00
2019-01-13T07:26:51.382Z,6.00
2019-01-13T07:29:18.309Z,6.00
2019-01-13T07:31:45.263Z,6.00
2019-01-13T07:34:12.196Z,6.10
2019-01-13T07:36:39.124Z,5.90
2019-01-13T07:39:06.945Z,5.80
2019-01-13T07:41:33.871Z,5.80
2019-01-13T07:44:00.802Z,5.80
2019-01-13T07:46:27.743Z,5.70
2019-01-13T07:48:54.681Z,5.70
2019-01-13T07:51:21.604Z,5.80
2019-01-13T07:53:48.560Z,5.70
2019-01-13T07:56:15.547Z,5.70
2019-01-13T07:58:42.476Z,5.70
2019-01-13T08:01:09.456Z,6.40
2019-01-13T08:03:36.388Z,5.70
2019-01-13T08:06:03.319Z,5.60
2019-01-13T08:08:30.309Z,5.70
2019-01-13T08:10:57.288Z,5.70
2019-01-13T08:13:25.479Z,5.70
2019-01-13T08:15:52.438Z,5.70
2019-01-13T08:18:19.373Z,5.80
2019-01-13T08:20:46.302Z,5.80
2019-01-13T08:23:13.269Z,5.70
2019-01-13T08:25:40.233Z,5.70
2019-01-13T08:28:07.177Z,5.70
2019-01-13T08:30:34.162Z,5.70
2019-01-13T08:33:01.082Z,5.70
2019-01-13T08:35:28.028Z,5.70
2019-01-13T08:37:54.980Z,5.70
2019-01-13T08:40:21.985Z,5.70
2019-01-13T08:42:48.934Z,5.70
2019-01-13T08:45:16.152Z,6.50
2019-01-13T08:47:43.089Z,6.00
2019-01-13T08:50:13.696Z,5.70
2019-01-13T08:52:40.643Z,5.70
2019-01-13T08:55:07.599Z,5.70
2019-01-13T08:57:34.549Z,5.70
2019-01-13T09:00:01.486Z,5.70
2019-01-13T09:02:32.160Z,5.70
2019-01-13T09:04:55.355Z,5.70
2019-01-13T09:07:22.320Z,5.70
2019-01-13T09:09:49.311Z,6.00
2019-01-13T09:12:16.289Z,5.50
2019-01-13T09:14:44.637Z,5.60
2019-01-13T09:17:11.589Z,5.50
2019-01-13T09:19:38.528Z,5.50
2019-01-13T09:22:05.485Z,4.20
2019-01-13T09:24:32.441Z,5.40
2019-01-13T09:26:59.444Z,5.40
2019-01-13T09:29:26.385Z,5.40
2019-01-13T09:31:53.329Z,5.40
2019-01-13T09:34:20.287Z,5.50
2019-01-13T09:36:47.249Z,5.40
2019-01-13T09:39:14.189Z,5.40
2019-01-13T09:41:41.128Z,5.40
2019-01-13T09:44:08.123Z,5.50
2019-01-13T09:46:35.071Z,5.40
2019-01-13T09:49:02.020Z,5.40
2019-01-13T09:51:28.972Z,5.40
2019-01-13T09:53:55.912Z,5.30
2019-01-13T09:56:22.861Z,5.30
2019-01-13T09:58:49.807Z,5.30
2019-01-13T10:01:16.742Z,5.30
2019-01-13T10:03:43.685Z,5.30
2019-01-13T10:06:10.642Z,5.40
2019-01-13T10:08:37.581Z,5.40
2019-01-13T10:11:04.524Z,5.40
2019-01-13T10:13:31.529Z,5.30
2019-01-13T10:15:59.807Z,5.30
2019-01-13T10:18:26.744Z,5.30
2019-01-13T10:20:53.695Z,5.20
2019-01-13T10:23:20.664Z,5.30
2019-01-13T10:25:47.590Z,5.30
2019-01-13T10:28:14.611Z,5.30
2019-01-13T10:30:41.560Z,5.30
2019-01-13T10:33:08.503Z,5.20
2019-01-13T10:35:35.457Z,5.30
2019-01-13T10:38:02.404Z,5.20
2019-01-13T10:40:30.056Z,5.30
2019-01-13T10:42:57.032Z,5.30
2019-01-13T10:45:24.025Z,5.30
2019-01-13T10:47:50.943Z,5.20
2019-01-13T10:50:21.816Z,5.10
2019-01-13T10:52:48.772Z,5.10
2019-01-13T10:55:15.848Z,5.10
2019-01-13T10:57:42.803Z,5.10
2019-01-13T11:00:14.809Z,5.10
2019-01-13T11:02:41.765Z,5.20
2019-01-13T11:05:08.776Z,5.20
2019-01-13T11:07:35.711Z,5.20
2019-01-13T11:10:02.817Z,5.20
2019-01-13T11:12:29.771Z,5.20
2019-01-13T11:14:56.689Z,3.10
2019-01-13T11:17:23.931Z,5.30
2019-01-13T11:19:50.880Z,5.20
2019-01-13T11:22:17.804Z,5.20
2019-01-13T11:24:44.747Z,5.20
2019-01-13T11:27:11.764Z,5.20
2019-01-13T11:29:38.688Z,5.20
2019-01-13T11:32:05.632Z,5.20
2019-01-13T11:34:32.576Z,5.10
2019-01-13T11:36:59.507Z,5.20
2019-01-13T11:39:26.435Z,5.20
2019-01-13T11:41:53.401Z,5.30
2019-01-13T11:44:20.337Z,5.30
2019-01-13T11:46:47.279Z,5.20
2019-01-13T11:49:14.232Z,5.30
2019-01-13T11:51:41.210Z,5.20
2019-01-13T11:54:08.143Z,5.30
2019-01-13T11:56:35.091Z,5.10
2019-01-13T11:59:02.023Z,5.20
2019-01-13T12:01:28.994Z,5.30
2019-01-13T12:03:55.991Z,5.30
2019-01-13T12:06:22.931Z,5.20
2019-01-13T12:08:49.865Z,5.30
2019-01-13T12:11:16.826Z,5.20
2019-01-13T12:13:43.743Z,5.20
2019-01-13T12:16:10.679Z,5.20
2019-01-13T12:18:40.653Z,5.20
2019-01-13T12:21:05.094Z,5.20
2019-01-13T12:23:32.023Z,5.30
2019-01-13T12:25:58.973Z,5.30
2019-01-13T12:28:25.900Z,5.30
2019-01-13T12:30:52.836Z,5.30
2019-01-13T12:33:24.543Z,5.30
2019-01-13T12:35:46.736Z,5.40
2019-01-13T12:38:13.687Z,5.30
2019-01-13T12:40:40.640Z,5.30
2019-01-13T12:43:07.566Z,5.40
2019-01-13T12:45:34.519Z,5.40
2019-01-13T12:48:01.473Z,5.40
2019-01-13T12:50:29.599Z,5.40
2019-01-13T12:52:56.565Z,5.40
2019-01-13T12:55:23.493Z,5.50
2019-01-13T12:57:50.424Z,5.40
2019-01-13T13:00:17.478Z,5.50
2019-01-13T13:02:44.527Z,5.50
2019-01-13T13:05:11.471Z,5.90
2019-01-13T13:07:38.453Z,5.50
2019-01-13T13:10:10.904Z,5.60
2019-01-13T13:12:37.839Z,5.60
2019-01-13T13:15:06.053Z,5.70
2019-01-13T13:17:33.100Z,5.70
2019-01-13T13:20:00.644Z,5.70
2019-01-13T13:22:27.753Z,5.70
2019-01-13T13:24:54.761Z,5.80
2019-01-13T13:27:21.703Z,6.40
2019-01-13T13:29:48.768Z,7.40
2019-01-13T13:32:15.883Z,5.90
2019-01-13T13:34:42.899Z,5.80
2019-01-13T13:37:09.853Z,6.50
2019-01-13T13:39:36.841Z,7.00
2019-01-13T13:42:03.902Z,6.00
2019-01-13T13:44:30.856Z,5.90
2019-01-13T13:46:57.791Z,6.00
2019-01-13T13:49:24.720Z,5.90
2019-01-13T13:51:51.740Z,6.00
2019-01-13T13:54:18.691Z,6.00
2019-01-13T13:56:45.619Z,6.50
2019-01-13T13:59:12.587Z,6.10
2019-01-13T14:01:39.554Z,7.30
2019-01-13T14:04:06.497Z,6.10
2019-01-13T14:06:33.423Z,6.10
2019-01-13T14:09:00.371Z,6.20
2019-01-13T14:11:27.320Z,6.30
2019-01-13T14:13:54.261Z,6.20
2019-01-13T14:16:21.251Z,6.30
2019-01-13T14:18:48.194Z,6.30
2019-01-13T14:21:15.750Z,6.40
2019-01-13T14:23:42.702Z,6.40
2019-01-13T14:26:09.641Z,6.40
2019-01-13T14:28:36.571Z,6.40
2019-01-13T14:31:03.647Z,6.60
2019-01-13T14:33:30.586Z,6.60
2019-01-13T14:35:57.527Z,6.80
2019-01-13T14:38:24.480Z,6.70
2019-01-13T14:40:51.402Z,6.70
2019-01-13T14:43:18.349Z,6.80
2019-01-13T14:45:45.295Z,6.80
2019-01-13T14:48:12.246Z,5.40
2019-01-13T14:50:39.804Z,6.90
2019-01-13T14:53:06.715Z,6.80
2019-01-13T14:55:33.730Z,6.90
2019-01-13T14:58:00.654Z,6.90
2019-01-13T15:00:29.700Z,6.90
2019-01-13T15:02:56.447Z,6.90
2019-01-13T15:05:23.391Z,7.00
2019-01-13T15:07:50.374Z,7.10
2019-01-13T15:10:17.730Z,7.20
2019-01-13T15:12:44.699Z,7.40
2019-01-13T15:15:11.980Z,7.40
2019-01-13T15:17:38.920Z,7.40
2019-01-13T15:20:08.809Z,7.50
2019-01-13T15:22:37.426Z,7.50
2019-01-13T15:25:05.839Z,7.60
2019-01-13T15:27:32.782Z,7.60
2019-01-13T15:29:59.732Z,7.70
2019-01-13T15:32:26.665Z,7.60
2019-01-13T15:34:53.608Z,6.50
2019-01-13T15:37:20.588Z,7.60
2019-01-13T15:39:47.515Z,7.60
2019-01-13T15:42:14.460Z,7.60
2019-01-13T15:44:41.408Z,7.30
2019-01-13T15:47:08.362Z,7.70
2019-01-13T15:49:35.315Z,7.70
2019-01-13T15:52:02.282Z,7.70
2019-01-13T15:54:29.211Z,7.70
2019-01-13T15:56:56.172Z,7.70
2019-01-13T15:59:23.114Z,7.70
2019-01-13T16:01:50.048Z,7.80
2019-01-13T16:04:17.061Z,7.80
2019-01-13T16:06:44.053Z,7.80
2019-01-13T16:09:10.989Z,7.80
2019-01-13T16:11:37.921Z,7.90
2019-01-13T16:14:04.878Z,7.80
2019-01-13T16:16:31.868Z,7.90
2019-01-13T16:18:58.857Z,7.90
2019-01-13T16:21:25.815Z,7.90
2019-01-13T16:23:53.276Z,7.80
2019-01-13T16:26:20.243Z,7.90
2019-01-13T16:28:47.190Z,7.90
2019-01-13T16:31:14.149Z,7.90
2019-01-13T16:33:41.086Z,7.90
2019-01-13T16:36:08.048Z,7.90
2019-01-13T16:38:34.985Z,8.00
2019-01-13T16:41:01.905Z,7.90
2019-01-13T16:43:28.905Z,7.90
2019-01-13T16:45:55.852Z,7.80
2019-01-13T16:48:22.801Z,7.90
2019-01-13T16:50:49.819Z,7.90
2019-01-13T16:53:16.748Z,7.80
2019-01-13T16:55:43.679Z,7.80
2019-01-13T16:58:10.636Z,7.80
2019-01-13T17:00:37.573Z,7.70
2019-01-13T17:03:04.503Z,7.80
2019-01-13T17:05:31.463Z,9.00
2019-01-13T17:07:58.438Z,7.60
2019-01-13T17:10:25.469Z,7.70
2019-01-13T17:12:52.486Z,7.70
2019-01-13T17:15:22.436Z,7.70
2019-01-13T17:17:49.363Z,7.70
2019-01-13T17:20:18.413Z,7.70
2019-01-13T17:22:45.350Z,7.80
2019-01-13T17:25:15.180Z,7.90
2019-01-13T17:27:42.144Z,7.80
2019-01-13T17:30:12.962Z,7.80
2019-01-13T17:32:39.882Z,7.80
2019-01-13T17:35:06.897Z,8.20
2019-01-13T17:37:33.832Z,7.90
2019-01-13T17:40:00.802Z,7.90
2019-01-13T17:42:27.816Z,7.80
2019-01-13T17:44:54.745Z,7.90
2019-01-13T17:47:21.659Z,7.90
2019-01-13T17:49:48.604Z,7.80
2019-01-13T17:52:15.548Z,7.80
2019-01-13T17:54:42.481Z,7.80
2019-01-13T17:57:09.438Z,7.80
2019-01-13T17:59:36.393Z,7.80
2019-01-13T18:02:03.341Z,7.80
2019-01-13T18:04:30.288Z,7.80
2019-01-13T18:06:57.221Z,7.80
2019-01-13T18:09:24.153Z,7.70
2019-01-13T18:11:51.116Z,7.90
2019-01-13T18:14:19.242Z,7.90
2019-01-13T18:16:45.025Z,7.80
2019-01-13T18:19:11.998Z,7.90
2019-01-13T18:21:38.933Z,7.90
2019-01-13T18:24:05.856Z,7.90
2019-01-13T18:26:34.156Z,7.90
2019-01-13T18:29:01.091Z,7.90
2019-01-13T18:31:28.046Z,8.00
2019-01-13T18:33:55.002Z,7.90
2019-01-13T18:36:21.964Z,7.90
2019-01-13T18:38:48.906Z,7.90
2019-01-13T18:41:15.853Z,7.90
2019-01-13T18:43:42.784Z,7.90
2019-01-13T18:46:09.719Z,8.00
2019-01-13T18:48:36.712Z,8.00
2019-01-13T18:51:03.717Z,8.10
2019-01-13T18:53:30.688Z,8.20
2019-01-13T18:55:57.777Z,8.10
2019-01-13T18:58:24.765Z,8.30
2019-01-13T19:00:51.732Z,8.30
2019-01-13T19:03:18.736Z,6.90
2019-01-13T19:05:45.747Z,7.50
2019-01-13T19:08:12.758Z,8.40
2019-01-13T19:10:45.477Z,7.30
2019-01-13T19:13:19.451Z,6.60
2019-01-13T19:15:47.939Z,9.40
2019-01-13T19:18:15.013Z,8.50
2019-01-13T19:20:41.957Z,8.40
2019-01-13T19:23:13.038Z,8.50
2019-01-13T19:25:39.987Z,8.60
2019-01-13T19:28:08.569Z,8.70
2019-01-13T19:30:35.525Z,8.60
2019-01-13T19:33:02.451Z,8.60
2019-01-13T19:35:29.431Z,8.60
2019-01-13T19:37:56.427Z,8.70
2019-01-13T19:40:23.371Z,8.50
2019-01-13T19:42:50.307Z,8.60
2019-01-13T19:45:18.548Z,8.70
2019-01-13T19:47:45.524Z,8.60
2019-01-13T19:50:14.880Z,8.60
2019-01-13T19:52:41.889Z,8.70
2019-01-13T19:55:10.813Z,9.50
2019-01-13T19:57:37.812Z,8.70
2019-01-13T20:00:07.417Z,8.70
2019-01-13T20:02:34.357Z,8.80
2019-01-13T20:05:01.300Z,8.70
2019-01-13T20:07:28.388Z,8.80
2019-01-13T20:09:55.323Z,8.80
2019-01-13T20:12:22.310Z,8.80
2019-01-13T20:14:49.307Z,8.70
2019-01-13T20:17:16.255Z,8.70
2019-01-13T20:19:43.207Z,8.70
2019-01-13T20:22:10.195Z,8.70
2019-01-13T20:24:37.129Z,8.60
2019-01-13T20:27:04.074Z,8.50
2019-01-13T20:29:32.400Z,8.60
2019-01-13T20:31:59.356Z,8.50
2019-01-13T20:34:26.290Z,8.50
2019-01-13T20:36:53.259Z,8.50
2019-01-13T20:39:20.219Z,8.50
2019-01-13T20:41:47.191Z,8.40
2019-01-13T20:44:14.156Z,8.40
2019-01-13T20:46:41.093Z,8.40
2019-01-13T20:49:08.066Z,8.70
2019-01-13T20:51:35.040Z,8.30
2019-01-13T20:54:07.855Z,8.30
2019-01-13T20:56:28.935Z,8.30
2019-01-13T20:58:55.917Z,8.40
2019-01-13T21:01:22.853Z,8.20
2019-01-13T21:03:49.815Z,8.20
2019-01-13T21:06:16.796Z,8.10
2019-01-13T21:08:43.761Z,8.00
2019-01-13T21:11:10.738Z,8.10
2019-01-13T21:13:37.753Z,8.00
2019-01-13T21:16:04.706Z,8.10
2019-01-13T21:18:31.657Z,8.00
2019-01-13T21:20:58.665Z,8.00
2019-01-13T21:23:25.587Z,7.90
2019-01-13T21:25:52.572Z,7.90
2019-01-13T21:28:19.538Z,7.70
2019-01-13T21:30:47.175Z,7.70
2019-01-13T21:33:14.115Z,7.70
2019-01-13T21:35:41.084Z,7.60
2019-01-13T21:38:08.012Z,7.60
2019-01-13T21:40:34.953Z,7.60
2019-01-13T21:43:01.902Z,7.60
2019-01-13T21:45:28.844Z,7.60
2019-01-13T21:47:55.771Z,7.70
2019-01-13T21:50:23.312Z,7.70
2019-01-13T21:52:50.278Z,7.70
2019-01-13T21:55:17.417Z,7.90
2019-01-13T21:57:44.380Z,7.80
2019-01-13T22:00:18.754Z,7.80
2019-01-13T22:02:45.719Z,7.80
2019-01-13T22:05:12.685Z,7.80
2019-01-13T22:07:39.628Z,8.00
2019-01-13T22:10:08.924Z,7.90
2019-01-13T22:12:35.855Z,7.90
2019-01-13T22:15:03.207Z,7.90
2019-01-13T22:17:30.150Z,7.90
2019-01-13T22:19:57.092Z,7.80
2019-01-13T22:22:24.041Z,7.80
2019-01-13T22:24:50.993Z,7.80
2019-01-13T22:27:17.939Z,7.70
2019-01-13T22:29:44.907Z,7.50
2019-01-13T22:32:12.425Z,7.90
2019-01-13T22:34:39.375Z,7.90
2019-01-13T22:37:06.346Z,7.80
2019-01-13T22:39:33.508Z,7.90
2019-01-13T22:42:00.449Z,7.80
2019-01-13T22:44:27.402Z,7.80
2019-01-13T22:46:54.375Z,7.90
2019-01-13T22:49:21.324Z,7.90
2019-01-13T22:51:48.292Z,7.90
2019-01-13T22:54:15.255Z,7.80
2019-01-13T22:56:42.200Z,7.80
2019-01-13T22:59:09.184Z,7.70
2019-01-13T23:01:40.265Z,7.60
2019-01-13T23:04:09.951Z,7.60
2019-01-13T23:06:36.917Z,7.50
2019-01-13T23:09:07.676Z,7.40
2019-01-13T23:11:34.638Z,7.10
2019-01-13T23:14:01.611Z,7.10
2019-01-13T23:16:28.580Z,6.50
2019-01-13T23:18:55.539Z,5.60
2019-01-13T23:21:22.466Z,6.50
2019-01-13T23:23:49.416Z,6.50
2019-01-13T23:26:16.404Z,7.00
2019-01-13T23:28:43.376Z,6.60
2019-01-13T23:31:10.325Z,6.60
2019-01-13T23:33:38.721Z,6.50
2019-01-13T23:36:05.672Z,6.30
2019-01-13T23:38:32.643Z,6.20
2019-01-13T23:40:59.581Z,6.20
2019-01-13T23:43:26.509Z,6.30
2019-01-13T23:45:53.448Z,6.20
2019-01-13T23:48:20.426Z,6.20
2019-01-13T23:50:47.374Z,6.10
2019-01-13T23:53:14.332Z,6.10
2019-01-13T23:55:41.316Z,6.80
2019-01-13T23:58:08.279Z,6.50
